createdAt,value
2023-12-13T00:02:30.561Z,94905.63
2023-12-13T00:06:42.998Z,94896.38
2023-12-13T00:11:00.151Z,94894.44
2023-12-13T00:15:13.966Z,94899.31
2023-12-13T00:19:26.572Z,94890.34
2023-12-13T00:23:39.112Z,94884.16
2023-12-13T00:27:53.630Z,94866.69
2023-12-13T00:32:06.858Z,94869.22
2023-12-13T00:36:19.451Z,94874.19
2023-12-13T00:40:32.329Z,94878.19
2023-12-13T00:44:45.517Z,94883.97
2023-12-13T00:48:58.214Z,94893.97
2023-12-13T00:53:11.005Z,94885.22
2023-12-13T00:57:23.560Z,94893.22
2023-12-13T01:01:45.698Z,94888.13
2023-12-13T01:05:58.409Z,94877.53
2023-12-13T01:10:11.347Z,94887.47
2023-12-13T01:14:23.891Z,94880.41
2023-12-13T01:18:37.432Z,94889.19
2023-12-13T01:22:50.228Z,94906.63
2023-12-13T01:27:02.749Z,94891.47
2023-12-13T01:31:15.388Z,94895.53
2023-12-13T01:35:27.907Z,94886.53
2023-12-13T01:39:42.896Z,94900.25
2023-12-13T01:43:55.472Z,94902.75
2023-12-13T01:48:08.048Z,94908.66
2023-12-13T01:52:20.614Z,94941.72
2023-12-13T01:56:33.662Z,94934.50
2023-12-13T02:00:47.219Z,94923.56
2023-12-13T02:05:02.317Z,94924.66
2023-12-13T02:09:14.933Z,94932.16
2023-12-13T02:13:27.711Z,94920.31
2023-12-13T02:17:51.442Z,94905.38
2023-12-13T02:22:09.164Z,94917.31
2023-12-13T02:26:22.093Z,94898.88
2023-12-13T02:30:34.792Z,94911.00
2023-12-13T02:34:47.747Z,94901.63
2023-12-13T02:39:00.306Z,94911.13
2023-12-13T02:43:12.927Z,94914.63
2023-12-13T02:47:27.370Z,94916.91
2023-12-13T02:51:39.873Z,94904.31
2023-12-13T02:55:53.550Z,94897.22
2023-12-13T03:00:07.601Z,94890.63
2023-12-13T03:04:20.134Z,94879.69
2023-12-13T03:08:32.677Z,94884.72
2023-12-13T03:12:45.140Z,94876.19
2023-12-13T03:16:58.051Z,94888.03
2023-12-13T03:21:10.688Z,94878.94
2023-12-13T03:25:23.201Z,94888.84
2023-12-13T03:29:35.986Z,94887.47
2023-12-13T03:33:48.522Z,94885.97
2023-12-13T03:38:01.137Z,94890.44
2023-12-13T03:42:13.688Z,94887.47
2023-12-13T03:46:26.319Z,94877.75
2023-12-13T03:50:38.783Z,94870.69
2023-12-13T03:54:51.329Z,94873.44
2023-12-13T03:59:03.780Z,94878.56
2023-12-13T04:03:16.364Z,94862.81
2023-12-13T04:07:28.977Z,94872.44
2023-12-13T04:11:41.507Z,94868.00
2023-12-13T04:15:53.992Z,94870.16
2023-12-13T04:20:07.573Z,94869.44
2023-12-13T04:24:20.097Z,94867.19
2023-12-13T04:28:32.649Z,94869.00
2023-12-13T04:32:45.551Z,94864.75
2023-12-13T04:36:58.425Z,94868.72
2023-12-13T04:41:11.116Z,94846.56
2023-12-13T04:45:23.606Z,94848.22
2023-12-13T04:49:36.148Z,94844.47
2023-12-13T04:53:48.623Z,94840.56
2023-12-13T04:58:01.107Z,94845.06
2023-12-13T05:02:13.617Z,94846.19
2023-12-13T05:06:26.269Z,94850.19
2023-12-13T05:10:42.660Z,94860.03
2023-12-13T05:14:55.177Z,94859.47
2023-12-13T05:19:08.283Z,94844.06
2023-12-13T05:23:20.813Z,94832.22
2023-12-13T05:27:33.604Z,94834.41
2023-12-13T05:31:46.293Z,94833.91
2023-12-13T05:35:58.781Z,94827.84
2023-12-13T05:40:11.913Z,94817.44
2023-12-13T05:44:24.459Z,94826.88
2023-12-13T05:48:37.515Z,94822.03
2023-12-13T05:52:50.404Z,94793.84
2023-12-13T05:57:03.043Z,94805.00
2023-12-13T06:01:15.632Z,94794.69
2023-12-13T06:05:28.231Z,94790.56
2023-12-13T06:09:43.910Z,94787.63
2023-12-13T06:13:57.142Z,94781.88
2023-12-13T06:18:09.814Z,94799.84
2023-12-13T06:22:22.477Z,94806.84
2023-12-13T06:26:35.029Z,94817.03
2023-12-13T06:30:47.620Z,94806.44
2023-12-13T06:35:00.246Z,94804.59
2023-12-13T06:39:13.506Z,94805.03
2023-12-13T06:43:26.032Z,94820.09
2023-12-13T06:47:39.027Z,94791.69
2023-12-13T06:51:54.853Z,94782.03
2023-12-13T06:56:08.150Z,94793.03
2023-12-13T07:00:25.387Z,94788.31
2023-12-13T07:04:38.030Z,94794.06
2023-12-13T07:08:50.556Z,94788.31
2023-12-13T07:13:03.393Z,94778.94
2023-12-13T07:17:15.923Z,94787.66
2023-12-13T07:21:28.436Z,94785.66
2023-12-13T07:25:43.016Z,94783.66
2023-12-13T07:29:55.524Z,94774.69
2023-12-13T07:34:10.511Z,94772.13
2023-12-13T07:38:23.089Z,94764.38
2023-12-13T07:42:36.466Z,94766.84
2023-12-13T07:46:49.965Z,94766.38
2023-12-13T07:51:03.181Z,94764.16
2023-12-13T07:55:20.221Z,94741.34
2023-12-13T07:59:32.780Z,94767.09
2023-12-13T08:03:48.322Z,94760.97
2023-12-13T08:08:00.915Z,94762.09
2023-12-13T08:12:13.689Z,94754.16
2023-12-13T08:16:26.204Z,94757.25
2023-12-13T08:20:38.736Z,94750.44
2023-12-13T08:24:51.255Z,94757.84
2023-12-13T08:29:07.092Z,94749.59
2023-12-13T08:33:20.646Z,94761.31
2023-12-13T08:37:33.497Z,94718.09
2023-12-13T08:41:46.386Z,94753.44
2023-12-13T08:45:58.860Z,94747.94
2023-12-13T08:50:11.500Z,94738.88
2023-12-13T08:54:24.102Z,94704.09
2023-12-13T08:58:36.781Z,94717.38
2023-12-13T09:02:49.365Z,94736.72
2023-12-13T09:07:01.981Z,94706.72
2023-12-13T09:11:14.545Z,94721.91
2023-12-13T09:15:27.154Z,94695.78
2023-12-13T09:19:39.711Z,94731.59
2023-12-13T09:23:52.238Z,94725.34
2023-12-13T09:28:04.977Z,94712.16
2023-12-13T09:32:17.663Z,94724.75
2023-12-13T09:36:30.159Z,94702.56
2023-12-13T09:40:42.759Z,94673.91
2023-12-13T09:44:57.277Z,94705.50
2023-12-13T09:49:20.982Z,94713.06
2023-12-13T09:53:42.093Z,94710.38
2023-12-13T09:57:54.658Z,94687.69
2023-12-13T10:02:18.946Z,94698.97
2023-12-13T10:06:31.579Z,94690.91
2023-12-13T10:10:49.169Z,94718.38
2023-12-13T10:15:14.564Z,94702.38
2023-12-13T10:19:27.400Z,94721.47
2023-12-13T10:23:43.127Z,94699.72
2023-12-13T10:27:55.684Z,94684.56
2023-12-13T10:32:08.495Z,94697.88
2023-12-13T10:36:23.110Z,94695.22
2023-12-13T10:40:35.613Z,94694.00
2023-12-13T10:44:52.886Z,94693.88
2023-12-13T10:49:06.005Z,94680.78
2023-12-13T10:53:20.170Z,94674.50
2023-12-13T10:57:33.098Z,94684.81
2023-12-13T11:01:47.525Z,94678.19
2023-12-13T11:06:07.952Z,94658.41
2023-12-13T11:10:20.631Z,94660.91
2023-12-13T11:14:35.219Z,94656.41
2023-12-13T11:18:55.115Z,94663.91
2023-12-13T11:23:10.365Z,94673.91
2023-12-13T11:27:22.859Z,94660.69
2023-12-13T11:31:35.867Z,94655.88
2023-12-13T11:35:48.919Z,94653.19
2023-12-13T11:40:01.629Z,94646.72
2023-12-13T11:44:14.157Z,94651.78
2023-12-13T11:48:26.716Z,94639.50
2023-12-13T11:52:39.319Z,94640.28
2023-12-13T11:56:52.507Z,94636.72
2023-12-13T12:01:05.569Z,94630.63
2023-12-13T12:05:18.274Z,94656.53
2023-12-13T12:09:30.826Z,94648.78
2023-12-13T12:13:46.036Z,94629.72
2023-12-13T12:17:58.688Z,94628.44
2023-12-13T12:22:14.580Z,94648.78
2023-12-13T12:26:27.387Z,94620.63
2023-12-13T12:30:45.892Z,94652.50
2023-12-13T12:34:58.871Z,94639.41
2023-12-13T12:39:17.905Z,94639.66
2023-12-13T12:43:30.513Z,94634.09
2023-12-13T12:47:43.229Z,94609.94
2023-12-13T12:51:56.031Z,94638.50
2023-12-13T12:56:12.206Z,94636.44
2023-12-13T13:00:25.295Z,94628.72
2023-12-13T13:04:39.187Z,94644.59
2023-12-13T13:08:51.793Z,94639.94
2023-12-13T13:13:06.228Z,94646.03
2023-12-13T13:17:19.037Z,94638.97
2023-12-13T13:21:31.656Z,94627.66
2023-12-13T13:25:44.223Z,94616.53
2023-12-13T13:29:56.786Z,94638.38
2023-12-13T13:34:09.289Z,94617.56
2023-12-13T13:38:22.258Z,94640.22
2023-12-13T13:42:35.073Z,94639.34
2023-12-13T13:46:52.807Z,94624.28
2023-12-13T13:51:05.774Z,94623.28
2023-12-13T13:55:19.382Z,94652.00
2023-12-13T13:59:32.635Z,94633.22
2023-12-13T14:03:46.512Z,94622.75
2023-12-13T14:08:00.147Z,94647.19
2023-12-13T14:12:12.729Z,94635.72
2023-12-13T14:16:25.319Z,94645.22
2023-12-13T14:20:38.448Z,94633.03
2023-12-13T14:24:51.865Z,94649.75
2023-12-13T14:29:05.484Z,94662.59
2023-12-13T14:33:20.472Z,94664.41
2023-12-13T14:37:35.692Z,94664.97
2023-12-13T14:41:48.350Z,94663.31
2023-12-13T14:46:00.891Z,94664.84
2023-12-13T14:50:13.860Z,94656.97
2023-12-13T14:54:27.062Z,94651.19
2023-12-13T14:58:40.563Z,94671.59
2023-12-13T15:02:53.054Z,94662.00
2023-12-13T15:07:08.281Z,94684.16
2023-12-13T15:11:22.027Z,94653.38
2023-12-13T15:15:34.602Z,94670.25
2023-12-13T15:19:47.218Z,94671.72
2023-12-13T15:23:59.723Z,94666.13
2023-12-13T15:28:12.381Z,94663.91
2023-12-13T15:32:25.154Z,94668.63
2023-12-13T15:36:39.657Z,94687.03
2023-12-13T15:40:52.347Z,94659.13
2023-12-13T15:45:09.182Z,94705.28
2023-12-13T15:49:21.845Z,94703.88
2023-12-13T15:53:34.791Z,94658.56
2023-12-13T15:57:48.303Z,94699.97
2023-12-13T16:02:05.835Z,94678.22
2023-12-13T16:06:18.500Z,94688.97
2023-12-13T16:10:31.099Z,94693.25
2023-12-13T16:14:44.041Z,94701.44
2023-12-13T16:18:56.665Z,94693.72
2023-12-13T16:23:09.234Z,94694.97
2023-12-13T16:27:21.802Z,94687.41
2023-12-13T16:31:34.343Z,94673.97
2023-12-13T16:35:46.891Z,94682.38
2023-12-13T16:39:59.410Z,94678.28
2023-12-13T16:44:12.217Z,94693.34
2023-12-13T16:48:24.934Z,94680.50
2023-12-13T16:52:38.779Z,94702.56
2023-12-13T16:56:51.637Z,94692.38
2023-12-13T17:01:04.415Z,94683.78
2023-12-13T17:05:17.124Z,94689.91
2023-12-13T17:09:29.750Z,94699.72
2023-12-13T17:13:44.066Z,94715.56
2023-12-13T17:17:56.679Z,94699.69
2023-12-13T17:22:09.736Z,94716.66
2023-12-13T17:26:23.811Z,94727.66
2023-12-13T17:30:37.704Z,94717.25
2023-12-13T17:34:50.391Z,94718.69
2023-12-13T17:39:03.732Z,94748.72
2023-12-13T17:43:16.239Z,94739.81
2023-12-13T17:47:28.835Z,94741.19
2023-12-13T17:51:41.645Z,94752.06
2023-12-13T17:55:54.250Z,94748.97
2023-12-13T18:00:08.213Z,94760.13
2023-12-13T18:04:20.715Z,94765.03
2023-12-13T18:08:33.462Z,94775.94
2023-12-13T18:12:46.408Z,94779.13
2023-12-13T18:16:58.905Z,94780.44
2023-12-13T18:21:11.570Z,94782.53
2023-12-13T18:25:24.074Z,94785.84
2023-12-13T18:29:36.571Z,94791.53
2023-12-13T18:33:49.371Z,94788.13
2023-12-13T18:38:01.969Z,94789.53
2023-12-13T18:42:14.541Z,94806.75
2023-12-13T18:46:29.548Z,94800.63
2023-12-13T18:50:42.024Z,94799.75
2023-12-13T18:54:54.637Z,94794.34
2023-12-13T18:59:07.130Z,94818.94
2023-12-13T19:03:19.816Z,94828.41
2023-12-13T19:07:32.602Z,94823.78
2023-12-13T19:11:45.549Z,94838.34
2023-12-13T19:15:58.195Z,94836.38
2023-12-13T19:20:11.651Z,94844.59
2023-12-13T19:24:25.343Z,94846.81
2023-12-13T19:28:37.945Z,94848.56
2023-12-13T19:32:50.478Z,94859.38
2023-12-13T19:37:03.011Z,94854.38
2023-12-13T19:41:15.676Z,94875.09
2023-12-13T19:45:28.281Z,94832.78
2023-12-13T19:49:40.906Z,94866.41
2023-12-13T19:53:53.476Z,94878.72
2023-12-13T19:58:06.040Z,94891.28
2023-12-13T20:02:18.617Z,94871.09
2023-12-13T20:06:31.122Z,94895.28
2023-12-13T20:10:43.988Z,94878.69
2023-12-13T20:14:56.559Z,94894.00
2023-12-13T20:19:09.339Z,94901.28
2023-12-13T20:23:21.911Z,94912.59
2023-12-13T20:27:38.780Z,94916.56
2023-12-13T20:31:51.435Z,94925.47
2023-12-13T20:36:08.638Z,94933.78
2023-12-13T20:40:21.136Z,94945.53
2023-12-13T20:44:33.968Z,94942.28
2023-12-13T20:48:46.774Z,94939.81
2023-12-13T20:52:59.295Z,94946.44
2023-12-13T20:57:11.882Z,94943.41
2023-12-13T21:01:24.424Z,94949.16
2023-12-13T21:05:37.056Z,94944.81
2023-12-13T21:09:49.553Z,94948.53
2023-12-13T21:14:04.617Z,94962.34
2023-12-13T21:18:17.236Z,94962.81
2023-12-13T21:22:29.790Z,94963.88
2023-12-13T21:26:43.604Z,94961.41
2023-12-13T21:30:56.275Z,94968.09
2023-12-13T21:35:09.503Z,94968.59
2023-12-13T21:39:22.114Z,94974.94
2023-12-13T21:43:36.842Z,94977.28
2023-12-13T21:47:49.952Z,94973.66
2023-12-13T21:52:02.493Z,94977.53
2023-12-13T21:56:16.542Z,94972.09
2023-12-13T22:00:29.344Z,94989.41
2023-12-13T22:04:41.842Z,94995.25
2023-12-13T22:08:54.337Z,94996.59
2023-12-13T22:13:06.865Z,95001.31
2023-12-13T22:17:24.462Z,94997.88
2023-12-13T22:21:38.326Z,95011.13
2023-12-13T22:25:55.519Z,95013.69
2023-12-13T22:30:09.357Z,95014.50
2023-12-13T22:34:22.260Z,95022.16
2023-12-13T22:38:35.102Z,95013.78
2023-12-13T22:42:48.064Z,95012.81
2023-12-13T22:47:00.900Z,95018.63
2023-12-13T22:51:17.002Z,95007.56
2023-12-13T22:55:30.022Z,95028.50
2023-12-13T22:59:42.839Z,95029.66
2023-12-13T23:04:00.623Z,95033.28
2023-12-13T23:08:17.482Z,95045.59
2023-12-13T23:12:30.267Z,95058.97
2023-12-13T23:16:43.118Z,95047.75
2023-12-13T23:20:55.938Z,95060.03
2023-12-13T23:25:09.311Z,95067.66
2023-12-13T23:29:22.103Z,95049.75
2023-12-13T23:33:35.021Z,95056.00
2023-12-13T23:37:47.950Z,95071.25
2023-12-13T23:42:01.082Z,95083.41
2023-12-13T23:46:13.596Z,95081.56
2023-12-13T23:50:27.064Z,95081.91
2023-12-13T23:54:39.576Z,95092.84
2023-12-13T23:58:52.845Z,95084.78
